Time;durP1;ratioP1;P1;durP2;ratioP2;P2;SDS_P1;SDS_P2;PMS_P1;PMS_P2;Temp;Humidity;BMP_temperature;BMP_pressure;BME280_temperature;BME280_humidity;BME280_pressure;Samples;Min_cycle;Max_cycle;Signal;HPM_P1;HPM_P2
2022/10/03 00:02:37;;;;;;;3.83;0.85;;;;;;;12.83;67.04;101976.94;5126360;28;19952;-77
2022/10/03 00:05:43;;;;;;;0.85;0.85;;;;;;;12.78;66.93;101977.00;5128286;28;20029;-79
2022/10/03 00:08:49;;;;;;;0.93;0.93;;;;;;;12.73;67.47;101974.44;5128382;28;20070;-77
2022/10/03 00:11:47;;;;;;;0.43;0.43;;;;;;;12.68;67.20;101984.19;5083428;29;20059;-77
2022/10/03 00:14:27;;;;;;;0.30;0.30;;;;;;;12.69;67.36;101987.69;5139654;28;20059;-77
2022/10/03 00:17:12;;;;;;;0.45;0.45;;;;;;;12.60;67.46;101988.69;5121689;28;20042;-76
2022/10/03 00:19:59;;;;;;;3.67;0.98;;;;;;;12.58;67.71;101986.09;5141929;28;20057;-77
2022/10/03 00:22:38;;;;;;;0.40;0.40;;;;;;;12.51;67.74;101984.47;5124452;28;20029;-76
2022/10/03 00:25:19;;;;;;;0.65;0.65;;;;;;;12.52;67.62;101993.22;5150315;28;20015;-78
2022/10/03 00:27:58;;;;;;;2.67;0.73;;;;;;;12.52;67.69;101995.84;5098664;28;20039;-78
2022/10/03 00:30:42;;;;;;;0.30;0.30;;;;;;;12.52;67.44;101996.72;5130437;28;20049;-78
2022/10/03 00:33:27;;;;;;;0.30;0.30;;;;;;;12.46;67.79;102001.22;5140967;28;20046;-78
2022/10/03 00:36:33;;;;;;;0.88;0.57;;;;;;;12.50;67.94;101997.63;5120601;28;20483;-80
2022/10/03 00:39:16;;;;;;;0.40;0.40;;;;;;;12.47;67.39;101992.44;5100270;28;20062;-79
2022/10/03 00:42:07;;;;;;;0.43;0.43;;;;;;;12.53;67.08;101993.19;5113983;28;20089;-80
2022/10/03 00:45:19;;;;;;;0.60;0.60;;;;;;;12.45;68.01;102000.31;5122889;28;20042;-78
2022/10/03 00:48:14;;;;;;;0.32;0.32;;;;;;;12.43;68.18;101996.88;5113537;28;20055;-78
2022/10/03 00:50:53;;;;;;;0.85;0.63;;;;;;;12.47;67.85;102003.81;5102185;28;20126;-79
2022/10/03 00:53:34;;;;;;;1.33;1.23;;;;;;;12.41;68.19;101999.50;5102261;28;20043;-80
2022/10/03 00:56:34;;;;;;;0.55;0.55;;;;;;;12.44;68.15;102003.84;5121554;28;20042;-79
2022/10/03 00:59:13;;;;;;;0.75;0.75;;;;;;;12.42;67.92;102000.38;5101759;28;20039;-79
2022/10/03 01:01:48;;;;;;;0.50;0.50;;;;;;;12.39;68.17;102003.06;5104627;28;20073;-80
2022/10/03 01:04:32;;;;;;;0.77;0.77;;;;;;;12.48;67.98;102009.97;5129132;28;20082;-81
2022/10/03 01:07:15;;;;;;;0.60;0.60;;;;;;;12.47;67.98;102008.22;5139130;28;20035;-79
2022/10/03 01:10:34;;;;;;;0.38;0.38;;;;;;;12.44;68.29;102011.75;5131173;28;20500;-82
2022/10/03 01:13:17;;;;;;;0.40;0.40;;;;;;;12.43;68.21;102015.28;5134640;28;20165;-80
2022/10/03 01:15:54;;;;;;;;;;;;;;;12.48;68.15;102016.09;5119311;28;20042;-80
2022/10/03 01:18:51;;;;;;;0.65;0.65;;;;;;;12.47;67.94;102009.06;5102925;28;19918;-79
2022/10/03 01:21:33;;;;;;;0.45;0.45;;;;;;;12.36;68.07;102017.13;5104785;28;20554;-79
2022/10/03 01:24:13;;;;;;;1.10;1.00;;;;;;;12.35;68.26;102012.75;5118652;28;20605;-79
2022/10/03 01:27:00;;;;;;;0.25;0.25;;;;;;;12.34;68.45;102008.38;5131054;28;20248;-80
2022/10/03 01:32:57;;;;;;;0.40;0.40;;;;;;;12.32;68.50;102009.28;5126187;28;20043;-80
2022/10/03 01:35:58;;;;;;;0.55;0.55;;;;;;;12.26;68.43;102015.50;5129065;28;20035;-79
2022/10/03 01:38:50;;;;;;;8.20;2.22;;;;;;;12.26;67.95;102011.13;5096274;28;20043;-79
2022/10/03 01:41:27;;;;;;;0.30;0.30;;;;;;;12.23;68.20;102010.31;5130804;28;20435;-80
2022/10/03 01:44:05;;;;;;;0.45;0.45;;;;;;;12.23;68.00;102010.31;5105354;28;20050;-79
2022/10/03 01:46:46;;;;;;;0.60;0.60;;;;;;;12.19;67.97;102025.22;5118599;28;20050;-81
2022/10/03 01:49:41;;;;;;;0.30;0.30;;;;;;;12.17;68.31;102021.78;5110170;28;20522;-80
2022/10/03 01:52:34;;;;;;;0.57;0.57;;;;;;;12.17;67.94;102021.78;5122808;28;20043;-79
2022/10/03 01:55:20;;;;;;;0.82;0.82;;;;;;;12.14;67.96;102027.06;5126839;28;20078;-81
2022/10/03 01:57:54;;;;;;;0.73;0.70;;;;;;;12.13;67.82;102033.22;5108826;28;20169;-80
2022/10/03 02:00:41;;;;;;;0.70;0.70;;;;;;;12.14;68.55;102037.59;5131985;28;20027;-80
2022/10/03 02:03:26;;;;;;;0.80;0.60;;;;;;;12.11;68.68;102041.13;5112983;28;20610;-80
2022/10/03 02:06:03;;;;;;;0.82;0.82;;;;;;;12.08;68.82;102037.69;5125780;28;20055;-79
2022/10/03 02:08:53;;;;;;;0.85;0.63;;;;;;;12.06;69.73;102039.44;5108327;28;20051;-79
2022/10/03 02:11:50;;;;;;;0.75;0.73;;;;;;;11.97;69.91;102048.34;5112398;28;20042;-83
2022/10/03 02:14:28;;;;;;;1.65;1.52;;;;;;;11.85;70.24;102048.41;5121738;28;20065;-79
2022/10/03 02:17:27;;;;;;;0.30;0.30;;;;;;;12.06;69.94;102045.59;5124652;28;20094;-80
2022/10/03 02:20:38;;;;;;;1.60;0.52;;;;;;;11.99;69.88;102045.66;5121613;28;20051;-81
2022/10/03 02:23:30;;;;;;;3.60;0.93;;;;;;;11.81;70.31;102044.97;5107877;28;20043;-80
2022/10/03 02:26:16;;;;;;;2.00;1.20;;;;;;;11.81;71.11;102050.22;5108535;28;20027;-79
2022/10/03 02:29:17;;;;;;;0.63;0.63;;;;;;;11.64;72.22;102043.38;5131231;28;20038;-80
2022/10/03 02:32:09;;;;;;;1.25;0.50;;;;;;;11.59;71.19;102037.31;5134226;28;20622;-80
2022/10/03 02:35:19;;;;;;;2.08;1.60;;;;;;;11.67;70.49;102041.63;5135032;28;20426;-82
2022/10/03 02:38:07;;;;;;;0.43;0.43;;;;;;;11.68;70.63;102046.00;5139048;28;20569;-82
2022/10/03 02:41:12;;;;;;;1.05;0.98;;;;;;;11.81;70.74;102042.31;5102222;28;20039;-82
2022/10/03 02:44:05;;;;;;;0.50;0.50;;;;;;;11.80;70.95;102049.34;5135830;28;20047;-79
2022/10/03 02:46:47;;;;;;;5.05;1.95;;;;;;;11.81;70.44;102042.31;5126453;28;20109;-79
2022/10/03 02:49:49;;;;;;;0.73;0.73;;;;;;;11.70;70.56;102036.31;5123778;28;20054;-79
2022/10/03 02:52:46;;;;;;;2.45;1.20;;;;;;;11.65;70.23;102039.00;5094303;28;20061;-80
2022/10/03 02:55:44;;;;;;;1.15;1.05;;;;;;;11.65;70.30;102045.13;5096067;28;20545;-81
2022/10/03 02:58:41;;;;;;;0.40;0.40;;;;;;;11.78;70.01;102050.25;5098131;28;20436;-80
2022/10/03 03:01:49;;;;;;;0.68;0.68;;;;;;;11.70;70.06;102044.19;5124847;28;20035;-80
2022/10/03 03:04:40;;;;;;;0.55;0.55;;;;;;;11.78;69.88;102052.88;5112027;28;20092;-79
2022/10/03 03:07:29;;;;;;;0.50;0.50;;;;;;;11.63;70.21;102056.56;5091976;28;20034;-79
2022/10/03 03:10:38;;;;;;;1.25;1.15;;;;;;;11.60;70.50;102067.09;5100610;29;20043;-79
2022/10/03 03:13:27;;;;;;;0.60;0.60;;;;;;;11.67;69.93;102062.66;5089034;28;20054;-83
2022/10/03 03:16:32;;;;;;;0.55;0.55;;;;;;;11.60;70.43;102062.72;5125597;28;20039;-81
2022/10/03 03:19:24;;;;;;;0.80;0.80;;;;;;;11.55;70.55;102064.50;5078697;28;20051;-79
2022/10/03 03:22:45;;;;;;;3.63;1.05;;;;;;;11.57;70.67;102062.72;5112241;29;20050;-80
2022/10/03 03:25:24;;;;;;;0.30;0.30;;;;;;;11.57;69.97;102060.09;5019943;29;20044;-83
2022/10/03 03:28:13;;;;;;;0.30;0.30;;;;;;;11.61;69.72;102058.31;5090971;28;20046;-79
2022/10/03 03:30:55;;;;;;;0.93;0.85;;;;;;;11.63;69.66;102061.81;5091797;28;20110;-81
2022/10/03 03:33:37;;;;;;;1.88;1.75;;;;;;;11.58;69.86;102058.34;5091136;28;20040;-79
2022/10/03 03:36:37;;;;;;;1.00;1.00;;;;;;;11.62;69.85;102063.53;5124320;28;20054;-82
2022/10/03 03:39:53;;;;;;;0.75;0.73;;;;;;;11.61;69.91;102064.44;5107086;28;20039;-79
2022/10/03 03:42:45;;;;;;;0.30;0.30;;;;;;;11.67;69.69;102057.38;5081365;28;20055;-80
2022/10/03 03:45:49;;;;;;;0.52;0.52;;;;;;;11.62;69.78;102058.28;5138291;28;20058;-80
2022/10/03 03:48:49;;;;;;;1.05;0.82;;;;;;;11.64;69.54;102061.78;5090387;28;20788;-79
2022/10/03 03:51:57;;;;;;;1.20;0.82;;;;;;;11.71;69.60;102054.72;5098043;29;20031;-79
2022/10/03 03:55:08;;;;;;;1.92;1.75;;;;;;;11.62;69.58;102066.19;5095331;29;20413;-78
2022/10/03 03:57:51;;;;;;;1.42;1.20;;;;;;;11.72;69.73;102071.34;5113772;28;20074;-78
2022/10/03 04:01:06;;;;;;;0.43;0.43;;;;;;;11.67;69.92;102073.16;5116750;28;20716;-80
2022/10/03 04:03:47;;;;;;;0.35;0.35;;;;;;;11.64;70.46;102080.19;5060202;28;20042;-79
2022/10/03 04:07:06;;;;;;;13.52;0.98;;;;;;;11.69;70.76;102072.25;5118763;28;20174;-78
2022/10/03 04:09:48;;;;;;;0.73;0.73;;;;;;;11.54;70.97;102083.78;5032212;28;20117;-79
2022/10/03 04:12:37;;;;;;;0.40;0.40;;;;;;;11.48;70.21;102081.22;5095601;28;20055;-80
2022/10/03 04:15:23;;;;;;;2.08;1.02;;;;;;;11.50;70.46;102075.06;5092958;28;20454;-81
2022/10/03 04:21:19;;;;;;;0.37;0.37;;;;;;;11.50;69.92;102074.19;5145508;28;20035;-80
2022/10/03 04:24:21;;;;;;;0.40;0.40;;;;;;;11.54;70.02;102086.41;5118815;28;20282;-78
2022/10/03 04:26:51;;;;;;;0.63;0.55;;;;;;;11.50;70.07;102089.97;5119762;28;20056;-79
2022/10/03 04:29:37;;;;;;;0.60;0.60;;;;;;;11.49;69.86;102082.97;5102551;28;20138;-78
2022/10/03 04:32:14;;;;;;;0.98;0.90;;;;;;;11.48;69.67;102086.47;5120926;28;20038;-79
2022/10/03 04:35:16;;;;;;;0.90;0.90;;;;;;;11.47;69.96;102093.50;5103211;28;20094;-78
2022/10/03 04:37:59;;;;;;;0.50;0.50;;;;;;;11.45;69.75;102091.75;5119210;28;20050;-78
2022/10/03 04:40:39;;;;;;;0.40;0.40;;;;;;;11.45;69.79;102095.25;5107079;28;20576;-78
2022/10/03 04:43:28;;;;;;;1.17;0.65;;;;;;;11.45;69.53;102091.75;5136376;28;20114;-78
2022/10/03 04:46:14;;;;;;;0.43;0.43;;;;;;;11.41;69.63;102090.03;5104574;28;20033;-78
2022/10/03 04:49:21;;;;;;;1.05;1.05;;;;;;;11.39;70.15;102089.19;5099671;29;20054;-79
2022/10/03 04:52:19;;;;;;;0.90;0.90;;;;;;;11.38;69.64;102088.31;5134355;28;20038;-79
2022/10/03 04:55:05;;;;;;;1.60;1.50;;;;;;;11.30;69.71;102085.75;5115155;28;20047;-78
2022/10/03 04:58:05;;;;;;;0.30;0.30;;;;;;;11.25;69.85;102082.28;5109048;28;20046;-80
2022/10/03 05:01:07;;;;;;;1.23;0.47;;;;;;;11.24;69.56;102079.69;5096189;28;20198;-81
2022/10/03 05:03:52;;;;;;;0.47;0.47;;;;;;;11.21;69.60;102090.22;5068942;28;20456;-78
2022/10/03 05:06:49;;;;;;;0.95;0.95;;;;;;;11.26;69.59;102089.28;5137243;28;20050;-79
2022/10/03 05:09:35;;;;;;;0.88;0.88;;;;;;;11.17;69.83;102100.72;5112512;28;20038;-78
2022/10/03 05:12:19;;;;;;;0.45;0.45;;;;;;;11.16;69.45;102090.25;5119525;28;20053;-78
2022/10/03 05:15:12;;;;;;;1.45;1.33;;;;;;;11.21;69.88;102090.22;5099081;28;20095;-78
2022/10/03 05:18:03;;;;;;;0.45;0.45;;;;;;;11.16;70.39;102098.13;5130527;28;20137;-78
2022/10/03 05:20:47;;;;;;;1.88;1.30;;;;;;;11.09;71.09;102094.66;5116515;28;20877;-80
2022/10/03 05:24:02;;;;;;;1.30;1.20;;;;;;;11.06;70.09;102102.59;5125398;28;20089;-79
2022/10/03 05:26:42;;;;;;;0.50;0.50;;;;;;;11.13;69.73;102103.38;5095615;28;20074;-79
2022/10/03 05:29:24;;;;;;;2.00;1.25;;;;;;;11.12;70.18;102113.03;5105017;28;20046;-79
2022/10/03 05:32:11;;;;;;;0.47;0.47;;;;;;;11.12;69.66;102106.88;5140121;28;20038;-78
2022/10/03 05:35:03;;;;;;;0.85;0.85;;;;;;;11.12;69.96;102101.63;5141980;28;20407;-79
2022/10/03 05:38:15;;;;;;;0.80;0.80;;;;;;;11.13;71.65;102103.38;5100622;28;20086;-80
2022/10/03 05:40:58;;;;;;;1.23;1.23;;;;;;;11.18;71.09;102107.72;5068448;29;20048;-79
2022/10/03 05:43:43;;;;;;;0.63;0.63;;;;;;;11.10;71.52;102106.06;5036026;29;20044;-80
2022/10/03 05:46:32;;;;;;;0.70;0.70;;;;;;;11.14;72.79;102107.75;5127353;28;20046;-81
2022/10/03 05:49:34;;;;;;;0.60;0.60;;;;;;;11.12;73.62;102112.16;5141831;28;20138;-82
2022/10/03 05:52:26;;;;;;;0.88;0.88;;;;;;;10.96;74.23;102116.66;5117163;28;20373;-79
2022/10/03 05:55:32;;;;;;;0.75;0.57;;;;;;;11.02;72.81;102121.84;5126032;28;21431;-80
2022/10/03 05:58:02;;;;;;;18.98;3.83;;;;;;;10.98;74.08;102118.38;5113500;29;20058;-80
2022/10/03 06:00:52;;;;;;;1.40;1.35;;;;;;;11.00;72.75;102134.13;5132184;28;20035;-79
2022/10/03 06:03:41;;;;;;;1.50;1.40;;;;;;;11.00;72.15;102127.13;5127532;28;20051;-80
2022/10/03 06:06:43;;;;;;;0.40;0.40;;;;;;;11.05;71.84;102132.34;5117849;28;20047;-79
2022/10/03 06:09:51;;;;;;;0.90;0.90;;;;;;;11.08;71.73;102132.31;5099921;28;20059;-79
2022/10/03 06:13:02;;;;;;;0.57;0.57;;;;;;;11.07;71.70;102130.59;5070855;28;20127;-81
2022/10/03 06:15:53;;;;;;;0.85;0.85;;;;;;;11.08;71.37;102137.56;5068443;28;20499;-83
2022/10/03 06:18:43;;;;;;;1.55;1.38;;;;;;;11.11;71.57;102134.94;5110480;28;20232;-83
2022/10/03 06:21:40;;;;;;;0.60;0.60;;;;;;;11.10;72.17;102137.56;5141820;28;20039;-84
2022/10/03 06:24:18;;;;;;;0.50;0.50;;;;;;;11.14;73.41;102147.16;5115271;28;20051;-87
2022/10/03 06:27:03;;;;;;;0.95;0.95;;;;;;;11.13;74.14;102148.03;5092417;29;20042;-84
2022/10/03 06:29:53;;;;;;;0.98;0.98;;;;;;;11.14;72.88;102148.06;5075155;29;20280;-82
2022/10/03 06:32:54;;;;;;;0.43;0.43;;;;;;;11.11;74.52;102145.44;5117398;28;20035;-84
2022/10/03 06:35:43;;;;;;;7.80;1.25;;;;;;;11.01;76.68;102146.38;5097810;28;20061;-88
2022/10/03 06:38:35;;;;;;;2.42;1.65;;;;;;;11.05;74.87;102147.22;5093799;28;20051;-80
2022/10/03 06:41:19;;;;;;;0.52;0.52;;;;;;;10.96;78.26;102146.41;5102773;28;20111;-83
2022/10/03 06:43:59;;;;;;;0.47;0.47;;;;;;;11.02;78.60;102143.75;5102145;28;20058;-82
2022/10/03 06:46:55;;;;;;;1.70;0.65;;;;;;;11.11;76.65;102141.94;5090234;28;20035;-79
2022/10/03 06:49:41;;;;;;;1.30;0.93;;;;;;;11.09;78.17;102146.34;5097901;28;20058;-81
2022/10/03 06:52:24;;;;;;;1.42;1.33;;;;;;;10.89;79.80;102142.06;5128267;28;20508;-79
2022/10/03 06:55:12;;;;;;;1.25;1.08;;;;;;;10.94;79.80;102156.06;5103723;29;20095;-80
2022/10/03 06:57:51;;;;;;;0.88;0.88;;;;;;;11.05;78.33;102148.13;5102966;28;20081;-79
2022/10/03 07:00:38;;;;;;;0.95;0.77;;;;;;;11.06;77.40;102155.13;5135135;28;20034;-80
2022/10/03 07:03:41;;;;;;;0.65;0.65;;;;;;;11.12;77.59;102151.53;5150312;28;20043;-83
2022/10/03 07:06:21;;;;;;;0.80;0.80;;;;;;;11.11;78.66;102158.56;5091961;28;20321;-81
2022/10/03 07:09:10;;;;;;;1.90;1.35;;;;;;;11.01;79.75;102163.03;5107983;28;20098;-80
2022/10/03 07:11:59;;;;;;;1.65;1.55;;;;;;;10.99;80.63;102159.53;5139742;28;20440;-80
2022/10/03 07:15:12;;;;;;;0.73;0.73;;;;;;;11.21;78.32;102159.38;5123471;28;20043;-81
2022/10/03 07:17:51;;;;;;;1.33;1.23;;;;;;;11.20;78.41;102155.00;5089333;28;20055;-83
2022/10/03 07:20:59;;;;;;;1.55;1.45;;;;;;;11.17;78.92;102162.91;5110738;28;20046;-80
2022/10/03 07:23:41;;;;;;;0.88;0.88;;;;;;;11.29;77.72;102165.44;5126823;28;20039;-80
2022/10/03 07:26:25;;;;;;;0.47;0.47;;;;;;;11.26;78.83;102168.13;5147474;28;20121;-82
2022/10/03 07:29:07;;;;;;;0.55;0.55;;;;;;;11.21;79.10;102174.28;5121531;28;20043;-80
2022/10/03 07:32:15;;;;;;;0.90;0.90;;;;;;;11.21;79.91;102172.50;5116929;28;20077;-82
2022/10/03 07:35:25;;;;;;;3.67;1.50;;;;;;;11.17;80.76;102173.44;5097513;29;20051;-81
2022/10/03 07:41:23;;;;;;;1.73;1.63;;;;;;;11.18;81.78;102180.44;5122165;28;20137;-82
2022/10/03 07:44:31;;;;;;;10.13;2.05;;;;;;;11.18;82.78;102180.44;5136789;28;20178;-79
2022/10/03 07:47:31;;;;;;;0.50;0.50;;;;;;;11.29;81.32;102191.72;5134682;28;20038;-80
2022/10/03 07:50:29;;;;;;;0.47;0.47;;;;;;;11.38;81.36;102193.44;5127252;28;20050;-82
2022/10/03 07:53:27;;;;;;;2.80;2.25;;;;;;;11.43;81.63;102196.91;5129889;28;20078;-82
2022/10/03 07:56:38;;;;;;;0.68;0.68;;;;;;;11.48;80.92;102199.50;5129112;28;20049;-89
2022/10/03 07:59:54;;;;;;;1.25;1.15;;;;;;;11.54;82.44;102198.56;5138535;28;20042;-79
2022/10/03 08:02:45;;;;;;;0.68;0.68;;;;;;;11.53;82.70;102202.94;5103574;28;20046;-82
2022/10/03 08:06:00;;;;;;;4.47;1.75;;;;;;;11.54;81.77;102202.06;5111430;28;20718;-81
2022/10/03 08:08:56;;;;;;;1.73;1.15;;;;;;;11.60;82.52;102215.19;5091600;28;20113;-79
2022/10/03 08:11:51;;;;;;;1.27;1.00;;;;;;;11.58;81.17;102206.44;5136887;28;20589;-82
2022/10/03 08:14:51;;;;;;;0.63;0.63;;;;;;;11.77;80.79;102211.56;5122573;28;20047;-78
2022/10/03 08:17:38;;;;;;;1.60;1.02;;;;;;;11.80;81.19;102217.66;5105132;28;20083;-78
2022/10/03 08:20:18;;;;;;;0.88;0.88;;;;;;;11.83;81.57;102211.50;5108317;28;20038;-81
2022/10/03 08:23:13;;;;;;;2.90;1.67;;;;;;;11.85;81.75;102217.63;5107624;28;20564;-81
2022/10/03 08:26:08;;;;;;;0.70;0.68;;;;;;;11.82;82.32;102215.88;5121828;28;20054;-80
2022/10/03 08:29:17;;;;;;;0.43;0.43;;;;;;;11.95;81.13;102214.00;5120062;28;20054;-79
2022/10/03 08:32:16;;;;;;;0.52;0.52;;;;;;;11.84;82.57;102223.75;5126805;28;20495;-84
2022/10/03 08:35:24;;;;;;;0.47;0.47;;;;;;;11.87;82.20;102226.34;5115712;28;20051;-79
2022/10/03 08:37:57;;;;;;;0.95;0.95;;;;;;;12.01;80.94;102228.91;5119613;28;20478;-85
2022/10/03 08:40:52;;;;;;;;;;;;;;;12.06;80.83;102223.59;5115375;28;20070;-80
2022/10/03 08:43:41;;;;;;;;;;;;;;;11.98;81.30;102222.78;5085784;28;19918;-83
2022/10/03 08:46:33;;;;;;;4.55;0.55;;;;;;;12.08;81.17;102220.06;5117715;28;19909;-81
2022/10/03 08:49:04;;;;;;;1.27;1.17;;;;;;;12.05;82.17;102216.59;5104179;28;20385;-84
2022/10/03 08:52:00;;;;;;;1.05;1.05;;;;;;;12.11;81.46;102216.53;5152543;28;20059;-80
2022/10/03 08:54:52;;;;;;;11.15;3.17;;;;;;;12.25;79.69;102214.66;5127475;28;20058;-80
2022/10/03 08:57:59;;;;;;;0.55;0.55;;;;;;;12.28;81.21;102211.09;5124369;28;20149;-79
2022/10/03 09:00:54;;;;;;;1.15;0.77;;;;;;;12.26;81.85;102216.41;5152407;28;20041;-87
2022/10/03 09:03:48;;;;;;;0.80;0.80;;;;;;;12.34;80.07;102210.19;5115630;28;20054;-82
2022/10/03 09:06:47;;;;;;;0.68;0.68;;;;;;;12.37;80.81;102212.75;5111427;28;20039;-80
2022/10/03 09:09:20;;;;;;;5.05;2.38;;;;;;;12.41;80.04;102206.59;5110719;28;20054;-81
2022/10/03 09:12:03;;;;;;;1.48;1.20;;;;;;;12.46;80.44;102204.75;5110553;28;20066;-85
2022/10/03 09:14:43;;;;;;;3.33;2.53;;;;;;;12.56;80.23;102202.91;5113338;28;20051;-80
2022/10/03 09:17:19;;;;;;;1.67;1.45;;;;;;;12.56;80.42;102203.78;5113133;28;20042;-82
2022/10/03 09:19:59;;;;;;;0.93;0.75;;;;;;;12.62;81.01;102202.84;5134255;28;20054;-80
2022/10/03 09:22:43;;;;;;;1.80;1.45;;;;;;;12.63;82.25;102201.06;5109158;28;20040;-81
2022/10/03 09:25:23;;;;;;;0.57;0.57;;;;;;;12.64;81.53;102202.81;5108636;28;20046;-82
2022/10/03 09:28:15;;;;;;;2.45;1.55;;;;;;;12.60;82.19;102204.59;5116113;28;20438;-84
2022/10/03 09:30:56;;;;;;;0.40;0.40;;;;;;;12.66;82.43;102208.94;5124337;28;20090;-82
2022/10/03 09:33:46;;;;;;;0.47;0.47;;;;;;;12.67;81.39;102208.06;5123449;28;20050;-80
2022/10/03 09:36:28;;;;;;;1.75;0.82;;;;;;;12.72;81.51;102208.84;5124044;28;20150;-80
2022/10/03 09:39:05;;;;;;;0.75;0.75;;;;;;;12.79;81.09;102207.03;5121984;28;20046;-85
2022/10/03 09:42:08;;;;;;;2.13;1.35;;;;;;;12.82;81.45;102197.31;5122771;28;20034;-84
2022/10/03 09:45:20;;;;;;;2.60;1.90;;;;;;;12.91;81.24;102193.69;5114671;28;20046;-81
2022/10/03 09:48:08;;;;;;;0.50;0.50;;;;;;;13.00;79.70;102193.56;5090979;28;20045;-81
2022/10/03 09:51:08;;;;;;;0.50;0.50;;;;;;;13.05;79.17;102201.41;5122188;28;20043;-80
2022/10/03 09:54:01;;;;;;;1.60;0.80;;;;;;;13.11;79.05;102193.41;5103723;28;20078;-83
2022/10/03 09:56:59;;;;;;;0.40;0.40;;;;;;;13.12;78.60;102192.50;5094657;28;20034;-80
2022/10/03 10:00:09;;;;;;;0.40;0.40;;;;;;;13.18;78.58;102186.28;5111968;28;20074;-80
2022/10/03 10:02:42;;;;;;;0.65;0.65;;;;;;;13.21;78.36;102186.25;5137167;28;20046;-86
2022/10/03 10:05:15;;;;;;;;;;;;;;;13.19;78.17;102194.16;5111848;28;20551;-81
2022/10/03 10:08:20;;;;;;;0.40;0.40;;;;;;;13.27;77.53;102190.53;5133020;28;19918;-80
2022/10/03 10:10:55;;;;;;;;;;;;;;;13.33;77.05;102190.47;5135664;28;20406;-81
2022/10/03 10:14:03;;;;;;;0.43;0.43;;;;;;;13.35;76.25;102191.31;5128526;28;19976;-86
2022/10/03 10:16:43;;;;;;;0.95;0.75;;;;;;;13.40;76.36;102189.50;5123498;28;20034;-84
2022/10/03 10:19:16;;;;;;;0.63;0.63;;;;;;;13.48;75.61;102185.00;5120886;28;20083;-84
2022/10/03 10:22:05;;;;;;;0.60;0.60;;;;;;;13.52;75.59;102186.66;5138089;28;20043;-82
2022/10/03 10:24:54;;;;;;;0.30;0.30;;;;;;;13.54;75.49;102184.88;5107001;28;20054;-83
2022/10/03 10:28:01;;;;;;;1.75;1.65;;;;;;;13.59;75.73;102181.31;5124121;28;20037;-81
2022/10/03 10:30:51;;;;;;;0.65;0.65;;;;;;;13.66;75.92;102177.69;5121399;28;20023;-82
2022/10/03 10:33:55;;;;;;;12.55;1.60;;;;;;;13.69;75.87;102180.25;5108227;28;20770;-83
2022/10/03 10:37:20;;;;;;;0.55;0.50;;;;;;;13.75;75.76;102172.25;5121968;28;20441;-80
2022/10/03 10:40:29;;;;;;;2.90;2.13;;;;;;;13.82;75.00;102173.88;5118658;28;20043;-81
2022/10/03 10:43:23;;;;;;;0.45;0.45;;;;;;;13.91;74.55;102177.25;5126083;28;20534;-82
2022/10/03 10:45:56;;;;;;;2.78;0.98;;;;;;;13.95;73.10;102168.38;5105925;28;20043;-81
2022/10/03 10:48:45;;;;;;;1.30;1.20;;;;;;;13.96;73.13;102164.84;5109803;28;20070;-83
2022/10/03 10:51:39;;;;;;;1.25;1.15;;;;;;;14.09;73.75;102171.63;5110497;28;20054;-81
2022/10/03 10:55:03;;;;;;;0.20;0.20;;;;;;;14.09;73.15;102166.34;5112727;28;20415;-81
2022/10/03 10:57:56;;;;;;;0.30;0.30;;;;;;;14.17;72.85;102169.72;5123347;28;20042;-82
2022/10/03 11:00:45;;;;;;;0.40;0.40;;;;;;;14.25;70.12;102171.34;5116343;28;20026;-80
2022/10/03 11:03:54;;;;;;;10.23;0.50;;;;;;;14.27;69.24;102169.53;5132720;28;20224;-82
2022/10/03 11:07:03;;;;;;;0.82;0.82;;;;;;;14.31;68.63;102160.66;5128430;28;20047;-83
2022/10/03 11:09:47;;;;;;;12.52;0.75;;;;;;;14.37;69.28;102168.47;5122102;28;20042;-84
2022/10/03 11:12:57;;;;;;;5.63;1.02;;;;;;;14.45;68.41;102168.31;5162308;28;20043;-81
2022/10/03 11:15:36;;;;;;;2.72;1.52;;;;;;;14.46;69.58;102170.06;5131153;28;20074;-79
2022/10/03 11:18:45;;;;;;;0.30;0.30;;;;;;;14.53;69.01;102173.44;5122044;28;20039;-81
2022/10/03 11:21:40;;;;;;;0.57;0.57;;;;;;;14.54;70.28;102167.25;5113858;28;20022;-80
2022/10/03 11:24:35;;;;;;;0.35;0.35;;;;;;;14.95;66.81;102171.69;5151751;28;20042;-78
2022/10/03 11:27:31;;;;;;;1.23;1.23;;;;;;;14.94;66.86;102169.06;5144415;28;20042;-78
2022/10/03 11:30:20;;;;;;;0.20;0.20;;;;;;;14.93;67.73;102162.03;5153232;28;20058;-81
2022/10/03 11:33:48;;;;;;;0.93;0.93;;;;;;;14.97;65.88;102161.09;5098667;28;20047;-80
2022/10/03 11:37:00;;;;;;;0.40;0.40;;;;;;;15.00;66.20;102154.84;5028909;29;20056;-81
2022/10/03 11:39:38;;;;;;;0.20;0.20;;;;;;;15.14;64.75;102152.75;5035785;28;20406;-81
2022/10/03 11:42:36;;;;;;;0.30;0.30;;;;;;;15.08;67.45;102151.13;5107476;28;20440;-81
2022/10/03 11:45:23;;;;;;;0.50;0.50;;;;;;;15.17;66.25;102151.81;5105512;28;20046;-79
2022/10/03 11:48:03;;;;;;;0.20;0.20;;;;;;;15.17;66.73;102143.88;5124283;28;20050;-80
2022/10/03 11:50:54;;;;;;;0.40;0.40;;;;;;;15.31;64.62;102144.44;5121936;28;20038;-81
2022/10/03 11:53:40;;;;;;;0.20;0.20;;;;;;;15.31;65.69;102151.47;5104965;28;20062;-83
2022/10/03 11:56:37;;;;;;;0.30;0.30;;;;;;;15.36;66.29;102155.75;5091365;28;20047;-83
2022/10/03 11:59:36;;;;;;;0.30;0.30;;;;;;;15.55;65.91;102152.66;5115941;28;20559;-83
2022/10/03 12:02:39;;;;;;;0.20;0.20;;;;;;;15.64;64.59;102146.25;5107906;28;20780;-83
2022/10/03 12:09:13;;;;;;;0.65;0.50;;;;;;;15.91;65.60;102155.28;5124897;28;20051;-82
2022/10/03 12:12:08;;;;;;;0.30;0.30;;;;;;;15.99;64.38;102145.34;5106494;28;20047;-80
2022/10/03 12:14:46;;;;;;;0.20;0.20;;;;;;;16.19;64.11;102149.25;5105985;28;20046;-81
2022/10/03 12:17:31;;;;;;;2.45;1.20;;;;;;;16.15;62.46;102137.88;5086145;28;20042;-82
2022/10/03 12:20:28;;;;;;;0.20;0.20;;;;;;;16.31;60.20;102138.31;5070615;28;20051;-82
2022/10/03 12:23:28;;;;;;;0.20;0.20;;;;;;;16.25;59.36;102138.47;5106710;28;20039;-80
2022/10/03 12:26:02;;;;;;;0.90;0.90;;;;;;;16.31;59.01;102134.78;5107928;28;20043;-82
2022/10/03 12:28:43;;;;;;;0.30;0.30;;;;;;;16.38;60.91;102136.34;5088928;28;20054;-80
2022/10/03 12:31:26;;;;;;;0.50;0.50;;;;;;;16.42;61.53;102129.16;5093126;28;20050;-81
2022/10/03 12:34:23;;;;;;;0.50;0.50;;;;;;;16.45;62.88;102123.78;5096694;28;20038;-81
2022/10/03 12:37:22;;;;;;;1.27;0.85;;;;;;;16.56;60.55;102132.31;5114632;28;20035;-81
2022/10/03 12:40:19;;;;;;;0.77;0.60;;;;;;;16.70;59.67;102133.66;5133303;28;20051;-79
2022/10/03 12:43:11;;;;;;;0.32;0.32;;;;;;;17.22;56.92;102133.81;5100191;28;20141;-80
2022/10/03 12:45:42;;;;;;;4.63;0.32;;;;;;;16.90;60.14;102125.09;5114105;28;20066;-81
2022/10/03 12:48:41;;;;;;;0.30;0.30;;;;;;;17.42;55.07;102125.22;5118776;28;20157;-81
2022/10/03 12:51:47;;;;;;;0.40;0.40;;;;;;;17.43;55.12;102119.00;5124270;28;20039;-80
2022/10/03 12:54:44;;;;;;;0.25;0.25;;;;;;;17.24;55.28;102130.19;5102481;28;20067;-82
2022/10/03 12:57:56;;;;;;;1.05;1.05;;;;;;;17.23;57.92;102131.13;5088951;28;20046;-81
2022/10/03 13:01:06;;;;;;;0.40;0.40;;;;;;;17.26;58.96;102125.72;5119659;28;20070;-81
2022/10/03 13:03:59;;;;;;;0.20;0.20;;;;;;;17.28;57.75;102136.28;5102686;28;20050;-80
2022/10/03 13:07:04;;;;;;;0.20;0.20;;;;;;;17.20;58.07;102131.25;5136449;28;20038;-82
2022/10/03 13:10:12;;;;;;;0.28;0.28;;;;;;;17.23;58.54;102125.81;5095508;28;20038;-80
2022/10/03 13:13:04;;;;;;;0.25;0.25;;;;;;;17.25;58.32;102125.78;5156353;28;20046;-79
2022/10/03 13:15:54;;;;;;;0.50;0.50;;;;;;;17.27;59.20;102114.19;5123961;28;20027;-81
2022/10/03 13:18:31;;;;;;;0.20;0.20;;;;;;;17.24;59.56;102116.94;5087389;28;20042;-83
2022/10/03 13:21:12;;;;;;;1.00;0.77;;;;;;;17.24;60.25;102114.28;5110326;28;20086;-81
2022/10/03 13:23:59;;;;;;;0.40;0.40;;;;;;;17.25;59.05;102109.88;5124983;28;20055;-82
2022/10/03 13:27:21;;;;;;;0.20;0.20;;;;;;;17.17;57.44;102102.16;5094127;28;20037;-82
2022/10/03 13:30:27;;;;;;;0.22;0.22;;;;;;;17.18;58.25;102100.38;5045412;29;20497;-82
2022/10/03 13:33:10;;;;;;;0.30;0.30;;;;;;;17.26;57.78;102099.19;5051008;29;20098;-83
2022/10/03 13:36:14;;;;;;;0.50;0.50;;;;;;;17.35;59.91;102094.50;5132999;28;20073;-82
2022/10/03 13:38:51;;;;;;;;;;;;;;;17.43;59.11;102092.47;5092475;28;20058;-82